createdAt,value
2018-04-13T00:01:47.726Z,17.47
2018-04-13T00:04:50.252Z,16.70
2018-04-13T00:07:51.596Z,15.77
2018-04-13T00:10:53.986Z,18.33
2018-04-13T00:13:55.344Z,18.63
2018-04-13T00:16:57.424Z,17.93
2018-04-13T00:19:59.511Z,17.00
2018-04-13T00:23:01.732Z,16.40
2018-04-13T00:26:03.597Z,17.30
2018-04-13T00:29:05.474Z,15.80
2018-04-13T00:32:07.551Z,17.03
2018-04-13T00:35:15.845Z,18.67
2018-04-13T00:38:17.083Z,18.30
2018-04-13T00:41:19.609Z,18.20
2018-04-13T00:44:21.705Z,17.70
2018-04-13T00:47:23.973Z,17.77
2018-04-13T00:50:25.287Z,18.77
2018-04-13T00:53:28.627Z,18.57
2018-04-13T00:56:29.943Z,18.37
2018-04-13T00:59:31.781Z,17.37
2018-04-13T01:02:33.092Z,19.03
2018-04-13T01:05:34.457Z,18.63
2018-04-13T01:08:35.767Z,18.53
2018-04-13T01:11:37.090Z,18.63
2018-04-13T01:14:38.403Z,19.23
2018-04-13T01:17:39.701Z,19.90
2018-04-13T01:20:41.725Z,19.70
2018-04-13T01:23:42.995Z,19.97
2018-04-13T01:26:44.251Z,19.90
2018-04-13T01:29:45.522Z,20.00
2018-04-13T01:32:46.750Z,20.87
2018-04-13T01:35:48.007Z,22.67
2018-04-13T01:38:49.575Z,20.93
2018-04-13T01:41:50.912Z,21.10
2018-04-13T01:44:52.286Z,23.67
2018-04-13T01:47:54.554Z,22.47
2018-04-13T01:50:55.833Z,22.83
2018-04-13T01:53:57.921Z,23.83
2018-04-13T01:56:59.934Z,25.33
2018-04-13T02:00:01.248Z,25.93
2018-04-13T02:03:02.554Z,24.90
2018-04-13T02:06:03.938Z,32.77
2018-04-13T02:09:05.278Z,30.90
2018-04-13T02:12:06.598Z,37.77
2018-04-13T02:15:07.820Z,34.90
2018-04-13T02:18:09.126Z,28.77
2018-04-13T02:21:11.886Z,35.13
2018-04-13T02:24:13.123Z,32.37
2018-04-13T02:27:15.111Z,31.40
2018-04-13T02:30:16.357Z,32.23
2018-04-13T02:33:18.417Z,31.23
2018-04-13T02:36:19.732Z,34.10
2018-04-13T02:39:21.131Z,35.40
2018-04-13T02:42:23.185Z,34.20
2018-04-13T02:45:24.523Z,35.00
2018-04-13T02:48:26.581Z,38.60
2018-04-13T02:51:28.365Z,39.40
2018-04-13T02:54:30.482Z,43.60
2018-04-13T02:57:31.760Z,40.67
2018-04-13T03:00:33.025Z,44.20
2018-04-13T03:03:34.305Z,45.13
2018-04-13T03:06:36.859Z,46.77
2018-04-13T03:09:38.182Z,46.73
2018-04-13T03:12:39.466Z,48.70
2018-04-13T03:15:41.494Z,50.57
2018-04-13T03:18:42.741Z,52.77
2018-04-13T03:21:43.983Z,51.10
2018-04-13T03:24:45.990Z,51.57
2018-04-13T03:27:47.238Z,51.57
2018-04-13T03:30:48.599Z,53.20
2018-04-13T03:33:50.783Z,53.20
2018-04-13T03:36:52.223Z,55.07
2018-04-13T03:39:53.687Z,53.53
2018-04-13T03:42:55.011Z,54.30
2018-04-13T03:45:56.333Z,52.07
2018-04-13T03:48:58.381Z,54.30
2018-04-13T03:52:00.065Z,54.80
2018-04-13T03:55:01.496Z,55.40
2018-04-13T03:58:02.884Z,55.73
2018-04-13T04:01:04.138Z,55.07
2018-04-13T04:04:05.446Z,53.47
2018-04-13T04:07:06.747Z,56.57
2018-04-13T04:10:08.005Z,51.00
2018-04-13T04:13:09.281Z,53.33
2018-04-13T04:16:10.550Z,51.20
2018-04-13T04:19:11.834Z,51.47
2018-04-13T04:22:31.766Z,48.70
2018-04-13T04:26:05.098Z,47.33
2018-04-13T04:29:07.104Z,46.87
2018-04-13T04:32:08.384Z,46.57
2018-04-13T04:35:09.674Z,45.90
2018-04-13T04:38:10.974Z,45.10
2018-04-13T04:41:16.162Z,41.73
2018-04-13T04:44:18.274Z,44.30
2018-04-13T04:47:19.585Z,44.57
2018-04-13T04:50:21.861Z,42.80
2018-04-13T04:53:23.723Z,42.03
2018-04-13T04:56:25.126Z,43.73
2018-04-13T04:59:26.841Z,41.00
2018-04-13T05:02:28.212Z,41.23
2018-04-13T05:05:30.459Z,42.73
2018-04-13T05:08:32.078Z,37.80
2018-04-13T05:11:34.547Z,39.37
2018-04-13T05:14:36.111Z,38.50
2018-04-13T05:17:38.525Z,37.67
2018-04-13T05:20:39.815Z,37.33
2018-04-13T05:23:41.819Z,37.30
2018-04-13T05:26:43.476Z,38.70
2018-04-13T05:29:44.858Z,36.33
2018-04-13T05:32:46.163Z,38.10
2018-04-13T05:35:47.446Z,34.23
2018-04-13T05:38:49.203Z,35.57
2018-04-13T05:41:50.903Z,33.50
2018-04-13T05:44:53.158Z,37.00
2018-04-13T05:47:55.691Z,36.40
2018-04-13T05:50:59.645Z,36.07
2018-04-13T05:54:01.983Z,34.10
2018-04-13T05:57:03.386Z,39.10
2018-04-13T06:00:04.750Z,39.63
2018-04-13T06:03:06.062Z,36.93
2018-04-13T06:06:08.114Z,33.90
2018-04-13T06:09:09.416Z,33.27
2018-04-13T06:12:10.695Z,34.30
2018-04-13T06:15:12.014Z,37.13
2018-04-13T06:18:13.290Z,35.00
2018-04-13T06:21:14.566Z,36.10
2018-04-13T06:24:15.924Z,34.10
2018-04-13T06:27:17.228Z,35.87
2018-04-13T06:30:19.639Z,36.30
2018-04-13T06:33:20.957Z,36.03
2018-04-13T06:36:22.319Z,37.83
2018-04-13T06:39:23.661Z,35.13
2018-04-13T06:42:25.007Z,38.37
2018-04-13T06:45:26.340Z,41.43
2018-04-13T06:48:27.696Z,49.43
2018-04-13T06:51:29.796Z,49.77
2018-04-13T06:54:31.921Z,53.33
2018-04-13T06:57:33.239Z,51.53
2018-04-13T07:00:35.313Z,51.43
2018-04-13T07:03:37.442Z,48.67
2018-04-13T07:06:38.764Z,50.20
2018-04-13T07:09:40.087Z,50.40
2018-04-13T07:12:42.146Z,49.13
2018-04-13T07:15:43.548Z,48.20
2018-04-13T07:18:44.840Z,50.77
2018-04-13T07:21:46.147Z,53.33
2018-04-13T07:24:47.431Z,53.83
2018-04-13T07:27:48.934Z,54.07
2018-04-13T07:30:50.243Z,55.73
2018-04-13T07:33:51.602Z,51.70
2018-04-13T07:36:53.050Z,54.30
2018-04-13T07:39:55.096Z,91.00
2018-04-13T07:42:57.152Z,92.10
2018-04-13T07:45:58.457Z,45.77
2018-04-13T07:48:59.770Z,45.40
2018-04-13T07:52:01.138Z,46.70
2018-04-13T07:55:02.483Z,46.00
2018-04-13T07:58:03.794Z,47.60
2018-04-13T08:01:05.463Z,45.23
2018-04-13T08:04:06.438Z,47.10
2018-04-13T08:07:07.775Z,44.60
2018-04-13T08:10:09.089Z,45.40
2018-04-13T08:13:11.213Z,45.13
2018-04-13T08:16:12.562Z,45.50
2018-04-13T08:19:13.894Z,47.47
2018-04-13T08:22:15.250Z,44.47
2018-04-13T08:25:16.584Z,42.67
2018-04-13T08:28:17.892Z,40.10
2018-04-13T08:31:19.261Z,44.07
2018-04-13T08:34:20.655Z,39.13
2018-04-13T08:37:22.032Z,162.93
2018-04-13T08:40:23.450Z,43.27
2018-04-13T08:43:24.849Z,42.40
2018-04-13T08:46:26.146Z,38.37
2018-04-13T08:49:27.548Z,38.03
2018-04-13T08:52:28.883Z,36.43
2018-04-13T08:55:30.234Z,35.83
2018-04-13T08:58:31.547Z,36.17
2018-04-13T09:01:33.619Z,33.90
2018-04-13T09:04:34.971Z,33.40
2018-04-13T09:07:36.371Z,33.37
2018-04-13T09:10:38.453Z,34.47
2018-04-13T09:13:40.582Z,33.83
2018-04-13T09:16:41.910Z,30.73
2018-04-13T09:19:44.036Z,32.47
2018-04-13T09:22:45.432Z,32.53
2018-04-13T09:25:46.738Z,31.93
2018-04-13T09:28:48.124Z,32.43
2018-04-13T09:31:49.533Z,34.20
2018-04-13T09:34:50.938Z,32.63
2018-04-13T09:37:52.261Z,26.70
2018-04-13T09:40:53.615Z,25.07
2018-04-13T09:43:54.979Z,25.60
2018-04-13T09:46:56.352Z,25.80
2018-04-13T09:49:57.693Z,24.30
2018-04-13T09:52:59.074Z,24.07
2018-04-13T09:56:00.423Z,25.73
2018-04-13T09:59:02.597Z,24.73
2018-04-13T10:02:04.020Z,23.33
2018-04-13T10:05:12.257Z,23.47
2018-04-13T10:08:14.341Z,25.03
2018-04-13T10:11:16.470Z,27.63
2018-04-13T10:14:17.838Z,26.70
2018-04-13T10:17:19.220Z,27.97
2018-04-13T10:20:20.610Z,26.07
2018-04-13T10:23:22.708Z,26.60
2018-04-13T10:26:24.098Z,22.33
2018-04-13T10:29:25.477Z,24.73
2018-04-13T10:32:26.855Z,24.30
2018-04-13T10:35:28.223Z,25.00
2018-04-13T10:38:29.567Z,23.80
2018-04-13T10:41:31.006Z,27.37
2018-04-13T10:44:32.365Z,26.30
2018-04-13T10:47:34.491Z,29.10
2018-04-13T10:50:35.855Z,29.97
2018-04-13T10:53:37.204Z,26.50
2018-04-13T10:56:38.546Z,26.80
2018-04-13T10:59:40.625Z,26.73
2018-04-13T11:02:42.720Z,25.77
2018-04-13T11:05:44.099Z,29.37
2018-04-13T11:08:45.447Z,28.27
2018-04-13T11:11:46.808Z,27.17
2018-04-13T11:14:48.184Z,26.10
2018-04-13T11:17:49.520Z,27.03
2018-04-13T11:20:50.914Z,29.40
2018-04-13T11:23:52.300Z,27.50
2018-04-13T11:26:53.696Z,29.10
2018-04-13T11:29:55.144Z,26.43
2018-04-13T11:32:56.478Z,27.10
2018-04-13T11:35:57.840Z,28.83
2018-04-13T11:38:59.247Z,29.90
2018-04-13T11:42:00.619Z,31.97
2018-04-13T11:45:02.760Z,32.30
2018-04-13T11:48:04.085Z,30.37
2018-04-13T11:51:05.429Z,33.67
2018-04-13T11:54:06.805Z,30.93
2018-04-13T11:57:08.148Z,34.23
2018-04-13T12:00:10.330Z,34.37
2018-04-13T12:03:11.725Z,33.83
2018-04-13T12:06:13.117Z,39.83
2018-04-13T12:09:15.252Z,34.10
2018-04-13T12:12:16.603Z,30.23
2018-04-13T12:15:17.947Z,32.23
2018-04-13T12:18:19.353Z,32.53
2018-04-13T12:21:20.700Z,30.30
2018-04-13T12:24:22.798Z,30.27
2018-04-13T12:27:24.153Z,31.43
2018-04-13T12:30:25.584Z,31.40
2018-04-13T12:33:27.656Z,29.40
2018-04-13T12:36:29.022Z,31.10
2018-04-13T12:39:30.353Z,30.33
2018-04-13T12:42:31.717Z,29.40
2018-04-13T12:45:33.105Z,29.77
2018-04-13T12:48:34.479Z,29.10
2018-04-13T12:51:35.869Z,24.53
2018-04-13T12:54:37.422Z,21.67
2018-04-13T12:57:38.594Z,18.83
2018-04-13T13:00:40.719Z,17.70
2018-04-13T13:03:42.061Z,17.17
2018-04-13T13:06:43.408Z,21.37
2018-04-13T13:09:45.469Z,24.57
2018-04-13T13:12:46.810Z,22.30
2018-04-13T13:15:48.197Z,19.90
2018-04-13T13:18:49.548Z,21.87
2018-04-13T13:21:50.964Z,22.80
2018-04-13T13:24:53.037Z,23.10
2018-04-13T13:27:55.178Z,22.10
2018-04-13T13:30:56.498Z,21.17
2018-04-13T13:33:58.638Z,20.83
2018-04-13T13:37:00.041Z,20.80
2018-04-13T13:40:02.237Z,18.33
2018-04-13T13:43:03.642Z,21.03
2018-04-13T13:46:05.036Z,21.20
2018-04-13T13:49:06.379Z,20.30
2018-04-13T13:52:07.795Z,20.27
2018-04-13T13:55:09.917Z,23.27
2018-04-13T13:58:11.261Z,24.13
2018-04-13T14:01:12.721Z,20.77
2018-04-13T14:04:14.089Z,18.43
2018-04-13T14:07:15.440Z,18.70
2018-04-13T14:10:17.564Z,20.20
2018-04-13T14:13:18.957Z,19.87
2018-04-13T14:16:20.299Z,20.50
2018-04-13T14:19:21.637Z,19.03
2018-04-13T14:22:23.024Z,16.13
2018-04-13T14:25:24.402Z,19.27
2018-04-13T14:28:25.759Z,17.67
2018-04-13T14:31:27.125Z,16.83
2018-04-13T14:34:28.483Z,16.37
2018-04-13T14:37:29.847Z,15.00
2018-04-13T14:40:31.217Z,15.67
2018-04-13T14:43:32.575Z,15.63
2018-04-13T14:46:33.947Z,14.63
2018-04-13T14:49:35.281Z,14.50
2018-04-13T14:52:37.395Z,14.27
2018-04-13T14:55:38.723Z,15.93
2018-04-13T14:58:40.836Z,15.70
2018-04-13T15:01:42.206Z,15.07
2018-04-13T15:04:43.700Z,13.50
2018-04-13T15:07:45.023Z,12.83
2018-04-13T15:10:46.363Z,12.90
2018-04-13T15:13:48.470Z,12.37
2018-04-13T15:16:49.832Z,12.80
2018-04-13T15:19:51.199Z,12.47
2018-04-13T15:22:52.500Z,14.07
2018-04-13T15:25:53.896Z,13.50
2018-04-13T15:28:55.251Z,12.87
2018-04-13T15:31:56.623Z,13.07
2018-04-13T15:34:57.978Z,13.50
2018-04-13T15:37:59.359Z,13.70
2018-04-13T15:41:00.709Z,12.40
2018-04-13T15:44:02.140Z,13.00
2018-04-13T15:47:03.535Z,14.83
2018-04-13T15:50:04.919Z,13.73
2018-04-13T15:53:06.263Z,14.20
2018-04-13T15:56:07.632Z,14.53
2018-04-13T15:59:08.963Z,13.70
2018-04-13T16:02:10.332Z,14.63
2018-04-13T16:05:11.643Z,12.83
2018-04-13T16:08:13.011Z,14.70
2018-04-13T16:11:14.427Z,13.60
2018-04-13T16:14:15.805Z,13.60
2018-04-13T16:17:17.172Z,13.80
2018-04-13T16:20:18.501Z,13.50
2018-04-13T16:23:20.586Z,12.33
2018-04-13T16:26:22.689Z,13.10
2018-04-13T16:29:24.042Z,11.93
2018-04-13T16:32:25.375Z,12.03
2018-04-13T16:35:26.774Z,10.60
2018-04-13T16:38:28.190Z,11.00
2018-04-13T16:41:29.567Z,12.40
2018-04-13T16:44:30.935Z,12.00
2018-04-13T16:47:32.322Z,13.30
2018-04-13T16:50:34.507Z,13.97
2018-04-13T16:53:35.800Z,14.17
2018-04-13T16:56:37.165Z,17.03
2018-04-13T16:59:38.506Z,15.27
2018-04-13T17:02:40.629Z,16.73
2018-04-13T17:05:41.983Z,17.97
2018-04-13T17:08:43.355Z,19.80
2018-04-13T17:11:44.707Z,21.47
2018-04-13T17:14:46.054Z,24.37
2018-04-13T17:17:48.180Z,22.97
2018-04-13T17:20:50.237Z,25.70
2018-04-13T17:23:51.623Z,24.50
2018-04-13T17:26:52.995Z,24.23
2018-04-13T17:29:54.347Z,23.77
2018-04-13T17:32:55.715Z,24.17
2018-04-13T17:35:57.041Z,23.17
2018-04-13T17:38:59.155Z,24.53
2018-04-13T17:42:00.515Z,22.03
2018-04-13T17:45:01.843Z,22.87
2018-04-13T17:48:03.187Z,23.57
2018-04-13T17:51:04.555Z,22.90
2018-04-13T17:54:05.923Z,22.63
2018-04-13T17:57:07.286Z,21.73
2018-04-13T18:00:08.623Z,23.90
2018-04-13T18:03:09.964Z,24.17
2018-04-13T18:06:11.339Z,25.03
2018-04-13T18:09:12.685Z,23.07
2018-04-13T18:12:14.743Z,21.87
2018-04-13T18:15:16.069Z,23.87
2018-04-13T18:18:17.414Z,23.87
2018-04-13T18:21:18.779Z,22.33
2018-04-13T18:24:20.107Z,25.57
2018-04-13T18:27:21.448Z,23.63
2018-04-13T18:30:22.786Z,22.40
2018-04-13T18:33:24.112Z,22.37
2018-04-13T18:36:26.183Z,21.27
2018-04-13T18:39:27.614Z,20.60
2018-04-13T18:42:28.924Z,22.83
2018-04-13T18:45:31.747Z,22.87
2018-04-13T18:51:41.081Z,23.40
2018-04-13T18:54:42.408Z,23.30
2018-04-13T18:57:43.749Z,25.03
2018-04-13T19:00:45.836Z,24.30
2018-04-13T19:03:47.890Z,25.37
2018-04-13T19:06:49.307Z,25.87
2018-04-13T19:09:50.620Z,24.60
2018-04-13T19:12:51.990Z,26.13
2018-04-13T19:15:53.325Z,24.93
2018-04-13T19:18:54.673Z,22.20
2018-04-13T19:21:56.081Z,22.47
2018-04-13T19:24:57.438Z,25.10
2018-04-13T19:27:58.779Z,25.47
2018-04-13T19:31:00.125Z,24.30
2018-04-13T19:34:01.473Z,24.10
2018-04-13T19:37:03.711Z,23.40
2018-04-13T19:40:05.069Z,22.83
2018-04-13T19:43:06.434Z,22.97
2018-04-13T19:46:07.843Z,21.87
2018-04-13T19:49:09.172Z,22.13
2018-04-13T19:52:10.492Z,22.77
2018-04-13T19:55:11.850Z,24.37
2018-04-13T19:58:13.885Z,21.57
2018-04-13T20:01:15.212Z,23.43
2018-04-13T20:04:16.514Z,22.57
2018-04-13T20:07:17.819Z,23.20
2018-04-13T20:10:19.171Z,23.00
2018-04-13T20:13:20.531Z,24.47
2018-04-13T20:16:21.867Z,22.50
2018-04-13T20:19:23.219Z,22.60
2018-04-13T20:22:24.563Z,24.70
2018-04-13T20:25:25.884Z,23.37
2018-04-13T20:28:27.247Z,24.20
2018-04-13T20:31:28.615Z,27.10
2018-04-13T20:34:29.971Z,24.00
2018-04-13T20:37:31.323Z,30.20
2018-04-13T20:40:32.654Z,27.73
2018-04-13T20:43:34.064Z,27.60
2018-04-13T20:46:35.410Z,28.33
2018-04-13T20:49:36.784Z,31.90
2018-04-13T20:52:38.138Z,32.40
2018-04-13T20:55:39.460Z,29.63
2018-04-13T20:58:41.523Z,32.80
2018-04-13T21:01:42.840Z,33.97
2018-04-13T21:04:44.199Z,34.73
2018-04-13T21:07:45.515Z,32.97
2018-04-13T21:10:46.843Z,31.40
2018-04-13T21:13:48.165Z,35.07
2018-04-13T21:16:50.256Z,32.37
2018-04-13T21:19:52.337Z,32.83
2018-04-13T21:22:54.399Z,35.43
2018-04-13T21:25:55.755Z,36.07
2018-04-13T21:28:57.115Z,38.33
2018-04-13T21:31:58.431Z,37.93
2018-04-13T21:34:59.789Z,33.93
2018-04-13T21:38:02.122Z,36.57
2018-04-13T21:41:03.551Z,31.40
2018-04-13T21:44:04.872Z,35.00
2018-04-13T21:47:06.199Z,36.83
2018-04-13T21:50:07.547Z,33.77
2018-04-13T21:53:08.872Z,36.03
2018-04-13T21:56:10.236Z,34.10
2018-04-13T21:59:11.572Z,33.50
2018-04-13T22:02:12.907Z,34.73
2018-04-13T22:05:14.247Z,32.37
2018-04-13T22:08:16.274Z,35.00
2018-04-13T22:11:17.610Z,33.90
2018-04-13T22:14:37.623Z,31.13
2018-04-13T22:17:38.912Z,32.13
2018-04-13T22:20:40.254Z,32.07
2018-04-13T22:23:41.596Z,35.67
2018-04-13T22:26:43.647Z,33.87
2018-04-13T22:29:44.928Z,34.20
2018-04-13T22:32:46.233Z,33.63
2018-04-13T22:35:47.543Z,34.63
2018-04-13T22:38:48.876Z,34.13
2018-04-13T22:41:50.189Z,36.40
2018-04-13T22:44:51.534Z,38.00
2018-04-13T22:47:52.852Z,36.87
2018-04-13T22:50:54.226Z,37.97
2018-04-13T22:53:55.559Z,37.87
2018-04-13T22:56:57.628Z,37.47
2018-04-13T22:59:58.933Z,36.40
2018-04-13T23:03:00.240Z,35.97
2018-04-13T23:06:01.589Z,35.30
2018-04-13T23:09:02.968Z,36.50
2018-04-13T23:12:04.311Z,35.27
2018-04-13T23:15:05.639Z,35.50
2018-04-13T23:18:07.688Z,36.00
2018-04-13T23:21:09.051Z,36.87
2018-04-13T23:24:10.367Z,35.27
2018-04-13T23:27:11.679Z,37.63
2018-04-13T23:30:13.018Z,37.00
2018-04-13T23:33:14.355Z,38.97
2018-04-13T23:36:15.642Z,37.13
2018-04-13T23:39:16.935Z,37.70
2018-04-13T23:42:18.219Z,37.47
2018-04-13T23:45:19.664Z,37.80
2018-04-13T23:48:21.237Z,38.87
2018-04-13T23:51:22.540Z,38.40
2018-04-13T23:54:24.614Z,39.90
2018-04-13T23:57:26.692Z,39.33
